createdAt,value
2018-02-17T00:01:16.830Z,3.87
2018-02-17T00:03:44.715Z,4.25
2018-02-17T00:06:12.633Z,5.43
2018-02-17T00:08:40.526Z,4.72
2018-02-17T00:11:08.419Z,5.20
2018-02-17T00:13:36.331Z,4.85
2018-02-17T00:16:04.377Z,4.47
2018-02-17T00:18:32.273Z,4.12
2018-02-17T00:21:00.200Z,5.57
2018-02-17T00:23:28.107Z,4.87
2018-02-17T00:25:56.009Z,4.87
2018-02-17T00:28:23.948Z,4.70
2018-02-17T00:30:51.849Z,5.43
2018-02-17T00:33:19.768Z,4.40
2018-02-17T00:35:47.669Z,4.97
2018-02-17T00:38:15.568Z,5.68
2018-02-17T00:40:43.465Z,4.60
2018-02-17T00:43:12.424Z,4.50
2018-02-17T00:45:40.321Z,5.75
2018-02-17T00:48:08.265Z,5.32
2018-02-17T00:50:36.190Z,4.28
2018-02-17T00:53:04.089Z,6.05
2018-02-17T00:55:32.009Z,5.37
2018-02-17T00:57:59.913Z,6.15
2018-02-17T01:00:27.792Z,5.55
2018-02-17T01:02:55.689Z,6.87
2018-02-17T01:05:23.604Z,5.87
2018-02-17T01:07:51.509Z,5.82
2018-02-17T01:10:19.397Z,5.97
2018-02-17T01:12:47.292Z,4.72
2018-02-17T01:15:15.189Z,5.70
2018-02-17T01:17:43.096Z,5.47
2018-02-17T01:20:11.026Z,5.75
2018-02-17T01:22:38.918Z,5.25
2018-02-17T01:25:06.813Z,5.47
2018-02-17T01:27:35.802Z,5.75
2018-02-17T01:30:03.697Z,6.28
2018-02-17T01:32:31.625Z,5.97
2018-02-17T01:35:00.603Z,6.68
2018-02-17T01:37:28.498Z,5.40
2018-02-17T01:39:56.412Z,6.70
2018-02-17T01:42:24.328Z,7.47
2018-02-17T01:44:52.228Z,6.15
2018-02-17T01:47:20.121Z,7.57
2018-02-17T01:49:47.997Z,7.95
2018-02-17T01:52:15.900Z,7.12
2018-02-17T01:54:43.821Z,7.55
2018-02-17T01:57:11.733Z,8.32
2018-02-17T01:59:39.643Z,7.80
2018-02-17T02:02:07.544Z,10.07
2018-02-17T02:04:35.436Z,9.10
2018-02-17T02:07:04.320Z,11.23
2018-02-17T02:09:32.221Z,12.40
2018-02-17T02:12:00.109Z,14.07
2018-02-17T02:14:27.988Z,13.45
2018-02-17T02:16:55.892Z,12.35
2018-02-17T02:19:23.792Z,13.48
2018-02-17T02:21:51.692Z,13.95
2018-02-17T02:24:19.604Z,13.88
2018-02-17T02:26:47.508Z,12.65
2018-02-17T02:29:15.404Z,13.18
2018-02-17T02:31:43.302Z,13.90
2018-02-17T02:34:11.210Z,14.05
2018-02-17T02:36:39.099Z,14.27
2018-02-17T02:39:08.037Z,14.90
2018-02-17T02:41:36.964Z,15.45
2018-02-17T02:44:04.849Z,14.85
2018-02-17T02:46:32.777Z,13.93
2018-02-17T02:49:00.665Z,14.43
2018-02-17T02:51:28.564Z,15.18
2018-02-17T02:53:56.488Z,11.88
2018-02-17T02:56:24.382Z,14.35
2018-02-17T02:58:52.286Z,14.10
2018-02-17T03:01:20.197Z,14.48
2018-02-17T03:03:48.090Z,14.57
2018-02-17T03:06:16.001Z,14.63
2018-02-17T03:08:43.904Z,12.23
2018-02-17T03:11:11.808Z,15.02
2018-02-17T03:13:39.696Z,12.30
2018-02-17T03:16:07.598Z,13.77
2018-02-17T03:18:35.504Z,14.38
2018-02-17T03:21:03.398Z,13.52
2018-02-17T03:23:31.321Z,12.73
2018-02-17T03:25:59.205Z,12.93
2018-02-17T03:28:27.140Z,13.38
2018-02-17T03:30:55.053Z,13.68
2018-02-17T03:33:22.956Z,12.48
2018-02-17T03:35:50.852Z,12.52
2018-02-17T03:38:18.744Z,14.38
2018-02-17T03:40:46.653Z,12.82
2018-02-17T03:43:14.540Z,11.57
2018-02-17T03:45:42.432Z,12.02
2018-02-17T03:48:10.332Z,12.02
2018-02-17T03:50:38.225Z,11.60
2018-02-17T03:53:06.160Z,11.85
2018-02-17T03:55:34.051Z,12.20
2018-02-17T03:58:01.936Z,13.10
2018-02-17T04:00:29.840Z,12.43
2018-02-17T04:02:57.728Z,12.35
2018-02-17T04:05:25.663Z,13.13
2018-02-17T04:07:53.584Z,12.15
2018-02-17T04:10:21.470Z,12.25
2018-02-17T04:12:49.384Z,11.15
2018-02-17T04:15:17.289Z,12.65
2018-02-17T04:17:45.193Z,10.73
2018-02-17T04:20:13.101Z,10.48
2018-02-17T04:22:41.001Z,13.13
2018-02-17T04:25:08.904Z,11.12
2018-02-17T04:27:36.784Z,10.82
2018-02-17T04:30:04.741Z,12.05
2018-02-17T04:32:32.628Z,11.25
2018-02-17T04:35:00.513Z,9.70
2018-02-17T04:37:28.445Z,11.02
2018-02-17T04:39:59.208Z,11.63
2018-02-17T04:42:42.056Z,11.30
2018-02-17T04:45:19.904Z,10.95
2018-02-17T04:47:53.997Z,10.05
2018-02-17T04:50:39.724Z,11.60
2018-02-17T04:53:24.368Z,12.35
2018-02-17T04:55:58.276Z,11.48
2018-02-17T04:58:45.076Z,10.95
2018-02-17T05:01:19.061Z,9.50
2018-02-17T05:03:46.980Z,9.75
2018-02-17T05:06:32.785Z,11.75
2018-02-17T05:09:02.720Z,9.75
2018-02-17T05:11:30.667Z,12.57
2018-02-17T05:13:59.588Z,11.05
2018-02-17T05:16:33.600Z,10.20
2018-02-17T05:19:02.380Z,11.23
2018-02-17T05:21:30.301Z,12.20
2018-02-17T05:24:02.100Z,11.57
2018-02-17T05:26:45.880Z,9.15
2018-02-17T05:29:14.636Z,10.23
2018-02-17T05:31:42.572Z,12.52
2018-02-17T05:34:29.264Z,11.35
2018-02-17T05:36:57.184Z,10.38
2018-02-17T05:39:25.936Z,12.02
2018-02-17T05:41:58.941Z,10.98
2018-02-17T05:44:27.715Z,10.45
2018-02-17T05:46:55.632Z,10.10
2018-02-17T05:49:23.553Z,11.35
2018-02-17T05:51:51.472Z,10.02
2018-02-17T05:54:19.356Z,10.27
2018-02-17T05:56:47.239Z,9.88
2018-02-17T05:59:15.169Z,10.45
2018-02-17T06:01:43.076Z,10.38
2018-02-17T06:04:10.981Z,11.88
2018-02-17T06:06:38.892Z,11.95
2018-02-17T06:09:06.797Z,10.63
2018-02-17T06:11:35.850Z,10.13
2018-02-17T06:14:03.799Z,9.93
2018-02-17T06:16:31.705Z,10.40
2018-02-17T06:18:59.616Z,9.52
2018-02-17T06:21:27.512Z,10.95
2018-02-17T06:23:55.406Z,10.23
2018-02-17T06:26:23.297Z,11.43
2018-02-17T06:28:51.212Z,9.50
2018-02-17T06:31:19.106Z,8.35
2018-02-17T06:33:46.992Z,11.45
2018-02-17T06:36:14.909Z,8.15
2018-02-17T06:38:42.796Z,9.27
2018-02-17T06:41:10.688Z,11.00
2018-02-17T06:43:38.596Z,8.65
2018-02-17T06:46:06.476Z,9.90
2018-02-17T06:48:34.372Z,9.30
2018-02-17T06:51:02.273Z,8.88
2018-02-17T06:53:30.173Z,10.57
2018-02-17T06:55:58.071Z,10.35
2018-02-17T06:58:25.998Z,9.45
2018-02-17T07:00:53.892Z,10.50
2018-02-17T07:03:21.772Z,9.60
2018-02-17T07:05:49.689Z,9.43
2018-02-17T07:08:18.588Z,10.05
2018-02-17T07:10:46.480Z,10.75
2018-02-17T07:13:14.380Z,11.12
2018-02-17T07:15:42.288Z,10.25
2018-02-17T07:18:10.197Z,10.88
2018-02-17T07:20:38.371Z,11.80
2018-02-17T07:23:06.253Z,11.35
2018-02-17T07:25:34.149Z,11.35
2018-02-17T07:28:02.085Z,9.82
2018-02-17T07:30:29.976Z,11.60
2018-02-17T07:32:57.891Z,11.27
2018-02-17T07:35:26.857Z,10.88
2018-02-17T07:37:55.784Z,11.15
2018-02-17T07:40:23.728Z,10.82
2018-02-17T07:42:51.612Z,10.95
2018-02-17T07:45:19.500Z,9.75
2018-02-17T07:47:47.544Z,9.90
2018-02-17T07:50:15.570Z,9.80
2018-02-17T07:52:43.472Z,11.63
2018-02-17T07:55:11.380Z,11.07
2018-02-17T07:57:39.288Z,9.68
2018-02-17T08:00:07.194Z,10.27
2018-02-17T08:02:35.154Z,10.40
2018-02-17T08:05:03.081Z,9.80
2018-02-17T08:07:31.005Z,10.30
2018-02-17T08:09:58.923Z,10.70
2018-02-17T08:12:26.869Z,8.57
2018-02-17T08:14:54.771Z,9.00
2018-02-17T08:17:22.644Z,9.45
2018-02-17T08:19:50.560Z,9.50
2018-02-17T08:22:18.456Z,8.73
2018-02-17T08:24:46.352Z,8.48
2018-02-17T08:27:14.254Z,9.02
2018-02-17T08:29:42.189Z,10.13
2018-02-17T08:32:10.083Z,9.77
2018-02-17T08:34:38.000Z,9.52
2018-02-17T08:37:05.884Z,9.60
2018-02-17T08:39:33.788Z,7.80
2018-02-17T08:42:01.703Z,9.13
2018-02-17T08:44:29.626Z,9.38
2018-02-17T08:46:57.541Z,9.65
2018-02-17T08:49:25.444Z,9.23
2018-02-17T08:51:53.344Z,8.02
2018-02-17T08:54:21.236Z,8.85
2018-02-17T08:56:49.151Z,8.25
2018-02-17T08:59:17.049Z,8.00
2018-02-17T09:01:44.952Z,7.90
2018-02-17T09:04:12.906Z,7.37
2018-02-17T09:06:40.750Z,9.70
2018-02-17T09:09:08.696Z,8.38
2018-02-17T09:11:36.609Z,8.75
2018-02-17T09:14:04.484Z,8.48
2018-02-17T09:16:32.388Z,8.63
2018-02-17T09:19:01.292Z,8.93
2018-02-17T09:21:29.209Z,8.57
2018-02-17T09:23:57.098Z,9.82
2018-02-17T09:26:25.020Z,9.40
2018-02-17T09:28:52.921Z,11.63
2018-02-17T09:31:20.855Z,8.40
2018-02-17T09:33:48.748Z,10.32
2018-02-17T09:36:16.660Z,8.63
2018-02-17T09:38:44.577Z,10.68
2018-02-17T09:41:13.525Z,9.85
2018-02-17T09:43:41.425Z,9.95
2018-02-17T09:46:09.349Z,8.82
2018-02-17T09:48:37.232Z,7.75
2018-02-17T09:51:05.112Z,9.20
2018-02-17T09:53:33.048Z,8.13
2018-02-17T09:56:00.961Z,8.70
2018-02-17T09:58:28.877Z,8.77
2018-02-17T10:00:56.764Z,7.22
2018-02-17T10:03:24.669Z,10.00
2018-02-17T10:05:52.555Z,9.15
2018-02-17T10:08:20.461Z,8.27
2018-02-17T10:10:48.360Z,8.80
2018-02-17T10:13:16.253Z,9.13
2018-02-17T10:15:44.160Z,10.13
2018-02-17T10:18:12.070Z,8.95
2018-02-17T10:20:39.985Z,9.15
2018-02-17T10:23:07.928Z,8.85
2018-02-17T10:25:35.845Z,8.93
2018-02-17T10:28:03.733Z,9.25
2018-02-17T10:30:32.694Z,9.85
2018-02-17T10:33:00.596Z,8.95
2018-02-17T10:35:28.545Z,8.70
2018-02-17T10:37:56.461Z,9.77
2018-02-17T10:40:24.369Z,9.35
2018-02-17T10:42:52.282Z,8.48
2018-02-17T10:45:20.253Z,10.73
2018-02-17T10:47:48.169Z,8.60
2018-02-17T10:50:16.068Z,9.57
2018-02-17T10:52:44.007Z,10.27
2018-02-17T10:55:11.925Z,8.65
2018-02-17T10:57:39.825Z,9.95
2018-02-17T11:00:07.737Z,10.02
2018-02-17T11:02:35.647Z,10.80
2018-02-17T11:05:03.845Z,9.15
2018-02-17T11:07:32.793Z,9.05
2018-02-17T11:10:00.697Z,8.68
2018-02-17T11:12:28.620Z,9.80
2018-02-17T11:14:56.512Z,10.48
2018-02-17T11:17:24.417Z,11.07
2018-02-17T11:19:52.316Z,9.10
2018-02-17T11:22:20.286Z,8.48
2018-02-17T11:24:48.177Z,10.20
2018-02-17T11:27:16.112Z,8.93
2018-02-17T11:29:44.017Z,10.15
2018-02-17T11:32:11.905Z,9.73
2018-02-17T11:34:39.822Z,10.10
2018-02-17T11:37:07.716Z,9.25
2018-02-17T11:39:35.626Z,9.93
2018-02-17T11:42:03.635Z,10.35
2018-02-17T11:44:31.522Z,9.77
2018-02-17T11:46:59.431Z,9.70
2018-02-17T11:49:27.684Z,9.40
2018-02-17T11:51:55.608Z,8.95
2018-02-17T11:54:23.497Z,8.07
2018-02-17T11:56:51.527Z,8.32
2018-02-17T11:59:19.435Z,9.20
2018-02-17T12:01:47.317Z,7.37
2018-02-17T12:04:15.290Z,8.88
2018-02-17T12:06:43.175Z,7.97
2018-02-17T12:09:11.061Z,8.57
2018-02-17T12:11:38.980Z,8.57
2018-02-17T12:14:07.920Z,8.30
2018-02-17T12:16:35.830Z,8.40
2018-02-17T12:19:03.773Z,7.68
2018-02-17T12:21:31.664Z,9.75
2018-02-17T12:23:59.573Z,10.30
2018-02-17T12:26:27.512Z,9.23
2018-02-17T12:28:55.425Z,8.93
2018-02-17T12:31:23.317Z,7.60
2018-02-17T12:33:52.286Z,7.70
2018-02-17T12:36:20.177Z,9.98
2018-02-17T12:38:48.053Z,7.10
2018-02-17T12:41:15.948Z,8.13
2018-02-17T12:43:43.852Z,8.05
2018-02-17T12:46:11.757Z,9.38
2018-02-17T12:48:39.684Z,9.38
2018-02-17T12:51:07.577Z,8.43
2018-02-17T12:53:36.542Z,8.32
2018-02-17T12:56:04.440Z,7.87
2018-02-17T12:58:32.324Z,9.68
2018-02-17T13:01:01.110Z,8.23
2018-02-17T13:03:29.008Z,8.93
2018-02-17T13:05:56.960Z,8.75
2018-02-17T13:08:24.987Z,8.25
2018-02-17T13:10:52.889Z,7.50
2018-02-17T13:13:20.801Z,8.05
2018-02-17T13:15:48.684Z,8.93
2018-02-17T13:18:16.606Z,6.97
2018-02-17T13:20:44.525Z,7.87
2018-02-17T13:23:12.420Z,7.97
2018-02-17T13:25:40.336Z,9.10
2018-02-17T13:28:08.225Z,8.70
2018-02-17T13:30:36.121Z,7.90
2018-02-17T13:33:04.016Z,8.48
2018-02-17T13:35:31.904Z,7.90
2018-02-17T13:37:59.787Z,6.30
2018-02-17T13:40:27.693Z,7.15
2018-02-17T13:42:55.605Z,6.65
2018-02-17T13:45:23.485Z,9.10
2018-02-17T13:47:51.397Z,6.97
2018-02-17T13:50:19.285Z,8.32
2018-02-17T13:52:47.172Z,7.30
2018-02-17T13:55:15.080Z,7.32
2018-02-17T13:57:42.973Z,7.47
2018-02-17T14:00:10.879Z,7.12
2018-02-17T14:02:38.773Z,8.35
2018-02-17T14:05:06.678Z,7.45
2018-02-17T14:07:35.641Z,6.75
2018-02-17T14:10:04.528Z,7.12
2018-02-17T14:12:32.433Z,7.55
2018-02-17T14:15:00.344Z,7.12
2018-02-17T14:17:28.264Z,7.68
2018-02-17T14:19:56.176Z,7.65
2018-02-17T14:22:24.067Z,8.27
2018-02-17T14:24:51.979Z,7.93
2018-02-17T14:27:19.914Z,7.90
2018-02-17T14:29:47.801Z,7.22
2018-02-17T14:32:15.716Z,6.28
2018-02-17T14:34:43.609Z,7.50
2018-02-17T14:37:11.520Z,8.00
2018-02-17T14:39:39.445Z,6.05
2018-02-17T14:42:07.348Z,6.10
2018-02-17T14:44:35.245Z,5.90
2018-02-17T14:47:03.161Z,6.32
2018-02-17T14:49:31.096Z,5.85
2018-02-17T14:52:00.057Z,6.10
2018-02-17T14:54:27.945Z,6.50
2018-02-17T14:56:55.863Z,5.85
2018-02-17T14:59:23.769Z,5.87
2018-02-17T15:01:51.668Z,5.22
2018-02-17T15:04:19.577Z,7.20
2018-02-17T15:06:47.456Z,4.85
2018-02-17T15:09:15.372Z,5.15
2018-02-17T15:11:43.483Z,4.82
2018-02-17T15:14:11.384Z,6.12
2018-02-17T15:16:40.292Z,6.28
2018-02-17T15:19:08.236Z,4.68
2018-02-17T15:21:36.139Z,5.68
2018-02-17T15:24:04.021Z,6.07
2018-02-17T15:26:31.949Z,6.03
2018-02-17T15:28:59.849Z,5.50
2018-02-17T15:31:27.750Z,5.75
2018-02-17T15:33:55.669Z,7.40
2018-02-17T15:36:23.568Z,5.40
2018-02-17T15:38:51.504Z,5.50
2018-02-17T15:41:19.412Z,5.78
2018-02-17T15:43:47.301Z,6.43
2018-02-17T15:46:15.209Z,6.10
2018-02-17T15:48:43.120Z,6.82
2018-02-17T15:51:11.036Z,6.18
2018-02-17T15:53:38.925Z,6.65
2018-02-17T15:56:06.833Z,6.62
2018-02-17T15:58:34.733Z,7.50
2018-02-17T16:01:02.635Z,8.85
2018-02-17T16:03:30.545Z,6.78
2018-02-17T16:05:58.513Z,6.85
2018-02-17T16:08:26.408Z,8.88
2018-02-17T16:10:54.341Z,8.73
2018-02-17T16:13:22.228Z,8.38
2018-02-17T16:15:50.130Z,8.55
2018-02-17T16:18:18.032Z,9.75
2018-02-17T16:20:45.953Z,8.57
2018-02-17T16:23:13.852Z,9.65
2018-02-17T16:25:41.792Z,10.13
2018-02-17T16:28:09.684Z,9.15
2018-02-17T16:30:37.576Z,8.85
2018-02-17T16:33:05.512Z,9.90
2018-02-17T16:35:33.398Z,8.80
2018-02-17T16:38:01.296Z,9.82
2018-02-17T16:40:29.214Z,8.85
2018-02-17T16:42:57.104Z,10.73
2018-02-17T16:45:25.009Z,8.98
2018-02-17T16:47:52.920Z,10.00
2018-02-17T16:50:20.820Z,9.23
2018-02-17T16:52:48.946Z,8.82
2018-02-17T16:55:16.900Z,9.98
2018-02-17T16:57:44.812Z,9.60
2018-02-17T17:00:12.701Z,9.48
2018-02-17T17:02:40.622Z,10.13
2018-02-17T17:05:08.556Z,10.63
2018-02-17T17:07:36.462Z,9.43
2018-02-17T17:10:04.400Z,9.95
2018-02-17T17:12:32.284Z,10.05
2018-02-17T17:15:00.213Z,10.10
2018-02-17T17:17:28.113Z,9.50
2018-02-17T17:19:55.992Z,9.93
2018-02-17T17:22:23.909Z,11.18
2018-02-17T17:24:51.895Z,10.13
2018-02-17T17:27:19.820Z,10.48
2018-02-17T17:29:48.759Z,10.32
2018-02-17T17:32:16.683Z,11.35
2018-02-17T17:34:44.596Z,8.85
2018-02-17T17:37:12.541Z,11.07
2018-02-17T17:39:40.490Z,10.15
2018-02-17T17:42:08.380Z,9.90
2018-02-17T17:44:36.492Z,9.95
2018-02-17T17:47:04.431Z,10.75
2018-02-17T17:49:32.317Z,10.98
2018-02-17T17:52:00.227Z,10.48
2018-02-17T17:54:28.132Z,10.95
2018-02-17T17:56:56.017Z,10.90
2018-02-17T17:59:23.924Z,9.90
2018-02-17T18:01:51.841Z,11.68
2018-02-17T18:04:19.881Z,11.10
2018-02-17T18:06:47.770Z,9.85
2018-02-17T18:09:15.698Z,11.10
2018-02-17T18:11:43.584Z,11.23
2018-02-17T18:14:11.475Z,10.98
2018-02-17T18:16:39.397Z,9.80
2018-02-17T18:19:07.268Z,10.88
2018-02-17T18:21:35.170Z,10.32
2018-02-17T18:24:03.080Z,10.13
2018-02-17T18:26:31.004Z,10.88
2018-02-17T18:28:58.911Z,10.20
2018-02-17T18:31:26.839Z,12.90
2018-02-17T18:33:54.722Z,10.57
2018-02-17T18:36:22.625Z,12.07
2018-02-17T18:38:50.576Z,11.23
2018-02-17T18:41:18.489Z,9.50
2018-02-17T18:43:46.377Z,10.43
2018-02-17T18:46:14.292Z,11.55
2018-02-17T18:48:42.183Z,10.85
2018-02-17T18:51:10.097Z,11.43
2018-02-17T18:53:38.006Z,11.23
2018-02-17T18:56:07.037Z,10.40
2018-02-17T18:58:34.929Z,11.70
2018-02-17T19:01:02.872Z,11.48
2018-02-17T19:03:30.779Z,11.80
2018-02-17T19:05:58.675Z,13.62
2018-02-17T19:08:26.596Z,9.85
2018-02-17T19:10:54.508Z,12.32
2018-02-17T19:13:22.525Z,12.13
2018-02-17T19:15:50.442Z,11.70
2018-02-17T19:18:19.413Z,10.30
2018-02-17T19:20:47.357Z,10.52
2018-02-17T19:23:15.277Z,11.12
2018-02-17T19:25:43.201Z,11.07
2018-02-17T19:28:11.132Z,12.77
2018-02-17T19:30:39.010Z,11.65
2018-02-17T19:33:06.908Z,11.18
2018-02-17T19:35:34.809Z,13.32
2018-02-17T19:38:02.719Z,11.82
2018-02-17T19:40:31.773Z,13.85
2018-02-17T19:42:59.874Z,13.05
2018-02-17T19:45:28.306Z,12.70
2018-02-17T19:47:56.414Z,12.07
2018-02-17T19:50:24.430Z,11.63
2018-02-17T19:52:52.459Z,12.75
2018-02-17T19:55:20.514Z,12.90
2018-02-17T19:57:48.632Z,11.98
2018-02-17T20:00:16.674Z,12.18
2018-02-17T20:02:44.712Z,11.00
2018-02-17T20:05:12.716Z,11.35
2018-02-17T20:07:41.022Z,13.82
2018-02-17T20:10:09.186Z,12.02
2018-02-17T20:12:38.377Z,13.23
2018-02-17T20:15:06.509Z,12.37
2018-02-17T20:17:34.530Z,13.98
2018-02-17T20:20:02.574Z,12.07
2018-02-17T20:22:30.555Z,12.35
2018-02-17T20:24:58.582Z,13.35
2018-02-17T20:27:26.629Z,11.70
2018-02-17T20:29:54.686Z,10.95
2018-02-17T20:32:22.670Z,11.90
2018-02-17T20:34:50.683Z,12.15
2018-02-17T20:37:18.669Z,12.32
2018-02-17T20:39:46.674Z,13.70
2018-02-17T20:42:14.686Z,11.15
2018-02-17T20:44:42.658Z,13.45
2018-02-17T20:47:10.702Z,12.23
2018-02-17T20:49:38.729Z,12.37
2018-02-17T20:52:06.793Z,11.27
2018-02-17T20:54:34.849Z,11.52
2018-02-17T20:57:04.018Z,11.10
2018-02-17T20:59:32.085Z,11.95
2018-02-17T21:02:00.073Z,11.95
2018-02-17T21:04:28.317Z,12.77
2018-02-17T21:06:56.294Z,12.23
2018-02-17T21:09:24.334Z,11.38
2018-02-17T21:11:52.338Z,12.48
2018-02-17T21:14:20.393Z,12.68
2018-02-17T21:16:48.421Z,9.43
2018-02-17T21:19:16.481Z,12.82
2018-02-17T21:21:46.534Z,13.38
2018-02-17T21:24:14.577Z,12.13
2018-02-17T21:26:42.606Z,12.43
2018-02-17T21:29:10.594Z,12.18
2018-02-17T21:31:38.702Z,12.73
2018-02-17T21:34:06.746Z,12.90
2018-02-17T21:36:34.749Z,13.38
2018-02-17T21:39:02.898Z,11.82
2018-02-17T21:41:30.929Z,13.38
2018-02-17T21:43:58.946Z,11.25
2018-02-17T21:46:26.955Z,11.60
2018-02-17T21:48:54.944Z,11.68
2018-02-17T21:51:22.929Z,11.20
2018-02-17T21:53:50.950Z,11.02
2018-02-17T21:56:18.974Z,10.85
2018-02-17T21:58:46.977Z,13.05
2018-02-17T22:01:14.993Z,10.32
2018-02-17T22:03:43.030Z,11.23
2018-02-17T22:06:11.017Z,11.50
2018-02-17T22:08:39.046Z,10.80
2018-02-17T22:11:08.824Z,11.63
2018-02-17T22:13:36.823Z,12.73
2018-02-17T22:16:04.890Z,13.20
2018-02-17T22:18:32.887Z,10.95
2018-02-17T22:21:00.849Z,12.37
2018-02-17T22:23:29.914Z,12.20
2018-02-17T22:25:58.912Z,11.60
2018-02-17T22:28:26.935Z,13.23
2018-02-17T22:30:54.943Z,12.77
2018-02-17T22:33:22.941Z,12.18
2018-02-17T22:35:50.957Z,10.10
2018-02-17T22:38:18.990Z,10.80
2018-02-17T22:40:46.978Z,11.75
2018-02-17T22:43:14.969Z,14.77
2018-02-17T22:45:42.974Z,14.02
2018-02-17T22:48:11.014Z,11.88
2018-02-17T22:50:38.998Z,13.38
2018-02-17T22:53:07.005Z,12.80
2018-02-17T22:55:34.998Z,12.00
2018-02-17T22:58:03.033Z,12.15
2018-02-17T23:00:31.078Z,12.27
2018-02-17T23:02:59.069Z,11.93
2018-02-17T23:05:27.114Z,12.30
2018-02-17T23:07:55.173Z,12.27
2018-02-17T23:10:23.167Z,11.45
2018-02-17T23:12:51.230Z,13.00
2018-02-17T23:15:19.242Z,13.50
2018-02-17T23:17:47.281Z,11.57
2018-02-17T23:20:15.314Z,11.02
2018-02-17T23:22:43.345Z,13.18
2018-02-17T23:25:12.471Z,13.75
2018-02-17T23:27:40.469Z,12.70
2018-02-17T23:30:08.570Z,12.32
2018-02-17T23:32:37.640Z,13.40
2018-02-17T23:35:05.659Z,11.90
2018-02-17T23:37:33.675Z,12.60
2018-02-17T23:40:02.756Z,13.10
2018-02-17T23:42:30.851Z,13.77
2018-02-17T23:44:58.853Z,13.50
2018-02-17T23:47:26.880Z,11.80
2018-02-17T23:49:54.869Z,11.80
2018-02-17T23:52:22.915Z,13.45
2018-02-17T23:54:50.930Z,13.02
2018-02-17T23:57:18.917Z,14.27
2018-02-17T23:59:47.173Z,13.62
